Time;durP1;ratioP1;P1;durP2;ratioP2;P2;SDS_P1;SDS_P2;PMS_P1;PMS_P2;Temp;Humidity;BMP_temperature;BMP_pressure;BME280_temperature;BME280_humidity;BME280_pressure;Samples;Min_cycle;Max_cycle;Signal;HPM_P1;HPM_P2
2022/06/29 00:00:43;;;;;;;3.63;1.60;;;14.70;96.60;;;;;;4986392;28;20132;-46
2022/06/29 00:03:09;;;;;;;4.65;1.80;;;14.70;96.60;;;;;;4977977;28;20077;-49
2022/06/29 00:05:35;;;;;;;4.75;1.90;;;14.70;96.70;;;;;;4973048;28;20022;-48
2022/06/29 00:08:01;;;;;;;3.63;1.58;;;14.70;96.90;;;;;;4972979;28;20410;-54
2022/06/29 00:10:27;;;;;;;5.75;2.50;;;14.70;96.90;;;;;;4973155;28;20085;-54
2022/06/29 00:12:53;;;;;;;4.13;1.73;;;14.70;96.90;;;;;;4972773;28;20023;-47
2022/06/29 00:15:21;;;;;;;5.55;1.48;;;14.70;97.00;;;;;;4972922;28;20023;-54
2022/06/29 00:17:46;;;;;;;6.90;1.77;;;14.70;96.90;;;;;;4972672;28;20046;-50
2022/06/29 00:20:13;;;;;;;4.38;1.42;;;14.70;97.00;;;;;;4979324;28;20081;-42
2022/06/29 00:22:43;;;;;;;3.90;1.58;;;14.70;97.00;;;;;;4992305;28;20109;-52
2022/06/29 00:25:10;;;;;;;6.18;1.67;;;14.60;97.10;;;;;;4991927;28;20133;-49
2022/06/29 00:27:37;;;;;;;6.97;1.80;;;14.60;97.20;;;;;;4992034;28;20027;-48
2022/06/29 00:30:04;;;;;;;6.05;1.80;;;14.50;97.20;;;;;;4991990;28;20034;-51
2022/06/29 00:32:30;;;;;;;3.55;1.50;;;14.40;97.10;;;;;;4991938;28;20608;-44
2022/06/29 00:34:57;;;;;;;4.30;1.63;;;14.40;97.00;;;;;;4991972;28;20038;-47
2022/06/29 00:37:22;;;;;;;6.57;1.50;;;14.40;96.80;;;;;;4991936;28;20389;-52
2022/06/29 00:39:48;;;;;;;4.68;1.35;;;14.50;97.00;;;;;;4991766;28;20036;-53
2022/06/29 00:42:14;;;;;;;3.53;1.30;;;14.50;96.80;;;;;;4991869;28;20027;-52
2022/06/29 00:44:39;;;;;;;6.90;1.23;;;14.40;96.70;;;;;;4991903;28;20027;-52
2022/06/29 00:47:06;;;;;;;6.47;1.52;;;14.50;96.60;;;;;;4991727;28;20037;-46
2022/06/29 00:49:34;;;;;;;5.90;1.55;;;14.50;96.70;;;;;;4991740;28;20026;-44
2022/06/29 00:52:08;;;;;;;5.95;1.27;;;14.50;96.60;;;;;;4991576;28;20022;-46
2022/06/29 00:55:02;;;;;;;3.85;1.20;;;14.50;96.50;;;;;;4991569;28;20497;-52
2022/06/29 00:57:29;;;;;;;5.80;1.40;;;14.50;96.60;;;;;;4991284;28;20425;-53
2022/06/29 00:59:58;;;;;;;3.22;1.17;;;14.50;96.70;;;;;;4991543;28;20117;-43
2022/06/29 01:02:28;;;;;;;2.92;1.13;;;14.60;96.60;;;;;;4991747;28;20026;-54
2022/06/29 01:04:54;;;;;;;5.03;1.30;;;14.50;96.60;;;;;;4991744;28;20069;-50
2022/06/29 01:07:24;;;;;;;4.97;1.33;;;14.50;96.80;;;;;;4991554;28;20026;-51
2022/06/29 01:09:49;;;;;;;4.93;1.30;;;14.50;97.00;;;;;;4991773;28;20026;-60
2022/06/29 01:12:15;;;;;;;4.90;1.15;;;14.60;97.10;;;;;;4991392;28;20027;-58
2022/06/29 01:14:47;;;;;;;6.45;1.95;;;14.60;97.00;;;;;;4990344;28;20100;-55
2022/06/29 01:17:13;;;;;;;6.32;1.40;;;14.60;97.20;;;;;;4991469;28;20026;-52
2022/06/29 01:19:43;;;;;;;3.92;1.17;;;14.60;97.00;;;;;;4991287;28;20085;-57
2022/06/29 01:22:13;;;;;;;5.85;1.30;;;14.60;96.90;;;;;;4991503;28;20397;-52
2022/06/29 01:24:40;;;;;;;4.15;1.20;;;14.70;96.80;;;;;;4991265;28;20521;-57
2022/06/29 01:27:06;;;;;;;4.38;1.10;;;14.70;96.90;;;;;;4991475;28;20054;-50
2022/06/29 01:29:32;;;;;;;4.88;1.20;;;14.60;96.90;;;;;;4991445;28;20019;-58
2022/06/29 01:31:59;;;;;;;3.58;1.23;;;14.60;97.00;;;;;;4991314;28;20068;-51
2022/06/29 01:34:25;;;;;;;3.10;1.08;;;14.60;96.80;;;;;;4991336;28;20470;-53
2022/06/29 01:36:51;;;;;;;4.05;1.40;;;14.60;96.90;;;;;;4991217;28;20037;-50
2022/06/29 01:39:17;;;;;;;3.05;1.17;;;14.60;97.00;;;;;;4991545;28;20022;-57
2022/06/29 01:41:43;;;;;;;5.00;1.23;;;14.60;97.10;;;;;;4991206;28;20034;-57
2022/06/29 01:44:09;;;;;;;4.82;1.30;;;14.60;97.00;;;;;;4991350;28;20385;-54
2022/06/29 01:46:35;;;;;;;5.07;1.25;;;14.60;96.80;;;;;;4991061;28;20533;-52
2022/06/29 01:49:01;;;;;;;4.47;1.00;;;14.60;96.70;;;;;;4991262;28;20041;-56
2022/06/29 01:51:26;;;;;;;3.75;1.13;;;14.70;96.90;;;;;;4991406;28;20030;-49
2022/06/29 01:53:52;;;;;;;4.30;1.30;;;14.70;96.70;;;;;;4991302;28;20385;-56
2022/06/29 01:56:18;;;;;;;4.13;1.67;;;14.70;96.70;;;;;;4991426;28;20474;-55
2022/06/29 01:58:45;;;;;;;3.92;1.30;;;14.60;96.90;;;;;;4991078;28;20476;-50
2022/06/29 02:01:11;;;;;;;4.15;1.20;;;14.60;97.00;;;;;;4991003;28;20042;-44
2022/06/29 02:03:36;;;;;;;5.88;1.52;;;14.50;97.20;;;;;;4991077;28;20109;-56
2022/06/29 02:06:02;;;;;;;4.57;1.23;;;14.50;97.00;;;;;;4991265;28;20122;-41
2022/06/29 02:08:28;;;;;;;3.35;1.08;;;14.50;97.20;;;;;;4991170;28;20053;-49
2022/06/29 02:10:54;;;;;;;3.47;1.20;;;14.50;97.40;;;;;;4991006;28;20018;-46
2022/06/29 02:13:20;;;;;;;2.40;1.10;;;14.50;97.40;;;;;;4993824;28;20732;-55
2022/06/29 02:15:46;;;;;;;3.97;1.10;;;14.50;97.30;;;;;;4994357;28;20508;-52
2022/06/29 02:18:12;;;;;;;6.65;1.50;;;14.50;97.20;;;;;;4994453;28;20038;-50
2022/06/29 02:20:37;;;;;;;2.60;1.25;;;14.50;97.10;;;;;;4994278;28;20141;-42
2022/06/29 02:23:04;;;;;;;5.68;1.13;;;14.50;97.00;;;;;;4994554;28;20022;-48
2022/06/29 02:25:30;;;;;;;3.50;1.27;;;14.60;96.90;;;;;;4994240;28;20117;-47
2022/06/29 02:27:56;;;;;;;4.88;1.23;;;14.60;96.70;;;;;;4994267;28;20122;-45
2022/06/29 02:34:43;;;;;;;4.53;1.38;;;14.60;96.70;;;;;;4994155;28;20034;-43
2022/06/29 02:35:51;;;;;;;4.28;1.20;;;14.70;96.80;;;;;;4994250;28;20097;-40
2022/06/29 02:38:17;;;;;;;4.15;1.27;;;14.60;97.00;;;;;;4993934;28;20470;-42
2022/06/29 02:40:42;;;;;;;3.53;1.05;;;14.60;97.10;;;;;;4993877;28;20049;-40
2022/06/29 02:43:08;;;;;;;4.47;1.20;;;14.60;97.10;;;;;;4994109;28;20022;-44
2022/06/29 02:45:33;;;;;;;5.18;1.38;;;14.60;97.10;;;;;;4993994;28;20037;-40
2022/06/29 02:47:59;;;;;;;2.10;0.95;;;14.50;97.30;;;;;;4993927;28;20030;-40
2022/06/29 02:50:25;;;;;;;7.53;1.55;;;14.50;97.40;;;;;;4993732;28;20058;-40
2022/06/29 02:52:51;;;;;;;3.10;1.20;;;14.50;97.50;;;;;;4993471;28;20034;-40
2022/06/29 02:55:16;;;;;;;4.25;1.38;;;14.50;97.40;;;;;;4973604;28;20482;-41
2022/06/29 02:57:42;;;;;;;4.28;1.23;;;14.50;97.40;;;;;;4974035;28;20030;-40
2022/06/29 03:00:08;;;;;;;5.50;1.42;;;14.60;97.50;;;;;;4974315;28;20033;-41
2022/06/29 03:02:34;;;;;;;5.43;1.30;;;14.60;97.50;;;;;;4974168;28;20027;-40
2022/06/29 03:05:00;;;;;;;5.40;1.50;;;14.60;97.50;;;;;;4974101;28;20113;-41
2022/06/29 03:07:26;;;;;;;3.15;1.17;;;14.60;97.60;;;;;;4974151;28;20019;-43
2022/06/29 03:09:52;;;;;;;3.42;1.05;;;14.60;97.70;;;;;;4974125;28;20084;-42
2022/06/29 03:12:17;;;;;;;5.35;1.30;;;14.60;97.60;;;;;;4973872;28;20019;-47
2022/06/29 03:14:43;;;;;;;4.63;1.20;;;14.60;97.70;;;;;;4956797;28;20410;-51
2022/06/29 03:17:09;;;;;;;3.00;1.08;;;14.60;97.90;;;;;;4974174;28;20050;-49
2022/06/29 03:19:34;;;;;;;2.60;1.10;;;14.60;98.10;;;;;;4973913;28;20866;-54
2022/06/29 03:22:00;;;;;;;4.38;1.35;;;14.70;98.10;;;;;;4974048;28;20035;-52
2022/06/29 03:24:26;;;;;;;2.15;1.10;;;14.70;98.40;;;;;;4973556;28;20486;-59
2022/06/29 03:26:52;;;;;;;2.60;1.30;;;14.60;98.50;;;;;;4973825;28;20030;-52
2022/06/29 03:29:18;;;;;;;5.82;1.50;;;14.70;98.50;;;;;;4973548;28;20027;-58
2022/06/29 03:31:43;;;;;;;4.38;1.35;;;14.70;98.60;;;;;;4973840;28;20173;-52
2022/06/29 03:34:09;;;;;;;3.42;1.10;;;14.70;98.50;;;;;;4973662;28;20632;-56
2022/06/29 03:36:34;;;;;;;3.92;1.20;;;14.70;98.40;;;;;;4973464;28;20044;-50
2022/06/29 03:39:00;;;;;;;2.60;1.30;;;14.70;98.30;;;;;;4973592;28;20446;-49
2022/06/29 03:41:26;;;;;;;4.20;1.40;;;14.70;98.50;;;;;;4973248;28;20438;-46
2022/06/29 03:43:52;;;;;;;5.05;2.35;;;14.70;98.50;;;;;;4973482;28;20030;-46
2022/06/29 03:46:17;;;;;;;4.78;1.30;;;14.70;98.60;;;;;;4973413;28;20023;-56
2022/06/29 03:48:43;;;;;;;3.33;1.40;;;14.70;98.70;;;;;;4973464;28;20034;-47
2022/06/29 03:51:09;;;;;;;5.18;1.42;;;14.80;98.70;;;;;;4973376;28;20516;-54
2022/06/29 03:53:34;;;;;;;3.97;1.40;;;14.80;98.60;;;;;;4973309;28;20026;-52
2022/06/29 03:56:00;;;;;;;2.92;1.10;;;14.90;98.60;;;;;;4973266;28;20030;-57
2022/06/29 03:58:26;;;;;;;5.63;1.75;;;14.80;98.60;;;;;;4973106;28;20390;-52
2022/06/29 04:00:52;;;;;;;3.13;1.20;;;14.80;98.60;;;;;;4971858;28;20042;-53
2022/06/29 04:03:17;;;;;;;5.43;1.60;;;14.90;98.70;;;;;;4973071;28;20493;-53
2022/06/29 04:05:43;;;;;;;3.65;1.42;;;14.90;98.70;;;;;;4973015;28;20034;-50
2022/06/29 04:08:10;;;;;;;5.15;1.55;;;14.90;98.60;;;;;;4972938;28;20026;-49
2022/06/29 04:10:36;;;;;;;4.88;1.30;;;15.00;98.70;;;;;;4973257;28;20722;-51
2022/06/29 04:13:02;;;;;;;3.05;1.20;;;15.00;98.50;;;;;;4972954;28;20035;-40
2022/06/29 04:15:27;;;;;;;6.00;1.40;;;15.00;98.80;;;;;;4972734;28;20086;-40
2022/06/29 04:17:53;;;;;;;4.15;1.48;;;15.00;98.70;;;;;;4973017;28;20037;-41
2022/06/29 04:23:03;;;;;;;5.35;1.13;;;14.90;98.80;;;;;;4972736;28;20089;-48
2022/06/29 04:25:29;;;;;;;4.43;1.30;;;15.00;98.80;;;;;;4972514;28;20058;-47
2022/06/29 04:27:55;;;;;;;6.88;2.28;;;15.00;98.80;;;;;;4972383;28;20125;-45
2022/06/29 04:30:21;;;;;;;4.47;1.35;;;14.90;99.20;;;;;;4972619;28;20027;-53
2022/06/29 04:32:47;;;;;;;3.72;1.58;;;15.00;99.20;;;;;;4972584;28;20034;-57
2022/06/29 04:35:12;;;;;;;4.43;1.40;;;14.90;99.30;;;;;;4972180;28;20537;-51
2022/06/29 04:37:38;;;;;;;4.00;1.30;;;14.90;99.30;;;;;;4972455;28;20026;-51
2022/06/29 04:40:04;;;;;;;3.97;1.58;;;14.90;99.20;;;;;;4972509;28;20050;-56
2022/06/29 04:42:30;;;;;;;3.72;1.33;;;15.00;99.40;;;;;;4972518;28;20435;-57
2022/06/29 04:44:56;;;;;;;4.97;1.60;;;15.00;99.30;;;;;;4972596;28;20069;-53
2022/06/29 04:47:21;;;;;;;4.40;1.60;;;15.00;99.10;;;;;;4972387;28;20038;-50
2022/06/29 04:49:47;;;;;;;4.88;1.40;;;15.00;99.30;;;;;;4972157;28;20097;-51
2022/06/29 04:52:13;;;;;;;4.85;1.40;;;15.00;99.20;;;;;;4972306;28;20553;-43
2022/06/29 04:54:39;;;;;;;2.63;1.30;;;15.00;99.60;;;;;;4972205;28;20061;-40
2022/06/29 04:57:06;;;;;;;2.42;1.30;;;14.90;99.60;;;;;;4972341;28;20027;-57
2022/06/29 04:59:33;;;;;;;5.50;1.48;;;15.00;99.70;;;;;;4972035;28;20031;-54
2022/06/29 05:01:58;;;;;;;4.05;1.50;;;14.90;99.60;;;;;;4972241;28;20034;-47
2022/06/29 05:04:24;;;;;;;6.93;1.50;;;14.90;99.90;;;;;;4972171;28;20023;-58
2022/06/29 05:06:50;;;;;;;4.28;1.35;;;14.90;99.90;;;;;;4972058;28;20041;-45
2022/06/29 05:09:16;;;;;;;3.40;1.35;;;14.90;99.90;;;;;;4972211;28;20471;-49
2022/06/29 05:11:42;;;;;;;4.55;1.88;;;14.90;99.90;;;;;;4972241;28;20494;-51
2022/06/29 05:14:10;;;;;;;4.35;1.67;;;14.90;99.90;;;;;;4972067;28;20023;-47
2022/06/29 05:16:35;;;;;;;3.90;1.30;;;14.80;99.90;;;;;;4972248;28;20027;-48
2022/06/29 05:19:01;;;;;;;8.52;1.80;;;14.80;99.90;;;;;;4972077;28;20053;-46
2022/06/29 05:21:27;;;;;;;4.47;1.50;;;14.80;99.90;;;;;;4971928;28;20089;-46
2022/06/29 05:23:53;;;;;;;5.30;1.38;;;14.90;99.90;;;;;;4971810;28;20047;-53
2022/06/29 05:26:19;;;;;;;5.28;1.75;;;14.90;99.90;;;;;;4972026;28;20035;-46
2022/06/29 05:28:45;;;;;;;4.30;1.58;;;15.00;99.90;;;;;;4971960;28;20038;-45
2022/06/29 05:31:10;;;;;;;6.45;1.85;;;15.00;99.90;;;;;;4954655;28;20050;-52
2022/06/29 05:33:36;;;;;;;5.22;1.80;;;15.00;99.90;;;;;;4971983;28;20026;-49
2022/06/29 05:36:07;;;;;;;5.15;1.80;;;15.00;99.90;;;;;;4972365;28;20458;-52
2022/06/29 05:38:33;;;;;;;5.80;1.90;;;15.10;99.90;;;;;;4972182;28;20081;-56
2022/06/29 05:41:00;;;;;;;6.82;1.85;;;15.10;99.90;;;;;;4954371;28;20050;-47
2022/06/29 05:43:27;;;;;;;4.47;1.58;;;15.10;99.90;;;;;;4971994;28;20091;-50
2022/06/29 05:45:53;;;;;;;7.32;2.20;;;15.20;99.90;;;;;;4971916;28;20043;-50
2022/06/29 05:48:18;;;;;;;5.70;2.08;;;15.20;99.90;;;;;;4974536;28;20150;-55
2022/06/29 05:50:44;;;;;;;5.13;1.80;;;15.30;99.90;;;;;;4975532;28;20462;-51
2022/06/29 05:53:10;;;;;;;5.80;1.83;;;15.30;99.90;;;;;;4975325;28;20015;-41
2022/06/29 05:55:35;;;;;;;3.33;1.70;;;15.40;99.90;;;;;;4975571;28;20050;-50
2022/06/29 05:58:01;;;;;;;7.07;1.83;;;15.40;99.90;;;;;;4975295;28;20102;-50
2022/06/29 06:00:27;;;;;;;3.50;1.55;;;15.40;99.90;;;;;;4975633;28;20035;-58
2022/06/29 06:02:52;;;;;;;5.20;1.60;;;15.50;99.90;;;;;;4975254;28;20422;-45
2022/06/29 06:05:19;;;;;;;4.80;1.73;;;15.50;99.90;;;;;;4975101;28;20490;-49
2022/06/29 06:07:44;;;;;;;4.03;1.50;;;15.50;99.90;;;;;;4975261;28;20018;-41
2022/06/29 06:10:10;;;;;;;7.10;2.25;;;15.50;99.90;;;;;;4975287;28;20033;-44
2022/06/29 06:12:36;;;;;;;8.15;2.00;;;15.40;99.90;;;;;;4975051;28;20097;-45
2022/06/29 06:15:02;;;;;;;7.15;2.00;;;15.50;99.90;;;;;;4975168;28;20042;-49
2022/06/29 06:17:28;;;;;;;7.03;1.58;;;15.60;99.90;;;;;;4974862;28;20034;-44
2022/06/29 06:19:58;;;;;;;9.50;2.60;;;15.60;99.90;;;;;;4975012;28;20031;-54
2022/06/29 06:22:24;;;;;;;3.75;1.52;;;15.70;99.90;;;;;;4974851;28;20534;-50
2022/06/29 06:24:50;;;;;;;4.93;1.40;;;15.80;99.90;;;;;;4974849;28;20055;-51
2022/06/29 06:27:16;;;;;;;6.22;1.58;;;15.80;99.90;;;;;;4974861;28;20034;-55
2022/06/29 06:29:42;;;;;;;7.70;1.92;;;15.80;99.90;;;;;;4974633;28;20081;-47
2022/06/29 06:32:08;;;;;;;8.15;1.77;;;15.90;99.90;;;;;;4974194;28;20027;-53
2022/06/29 06:34:34;;;;;;;7.80;1.83;;;15.90;99.90;;;;;;4974551;28;20490;-47
2022/06/29 06:37:01;;;;;;;8.27;1.92;;;15.90;99.90;;;;;;4974501;28;20391;-54
2022/06/29 06:39:27;;;;;;;9.50;2.00;;;15.90;99.90;;;;;;4974453;28;20494;-50
2022/06/29 06:41:53;;;;;;;5.82;1.63;;;16.00;99.90;;;;;;4974423;28;20035;-45
2022/06/29 06:44:18;;;;;;;7.50;1.80;;;16.00;99.90;;;;;;4974257;28;20589;-50
2022/06/29 06:46:48;;;;;;;5.90;1.50;;;16.00;99.90;;;;;;4973959;28;20041;-49
2022/06/29 06:49:23;;;;;;;4.53;1.77;;;16.00;99.90;;;;;;4967919;28;20386;-45
2022/06/29 06:51:52;;;;;;;3.20;1.50;;;16.00;99.90;;;;;;4974313;28;20030;-47
2022/06/29 06:54:18;;;;;;;3.88;1.73;;;16.10;99.90;;;;;;4967916;28;20023;-52
2022/06/29 06:56:44;;;;;;;6.25;1.63;;;16.10;99.90;;;;;;4974180;28;20118;-46
2022/06/29 06:59:10;;;;;;;3.47;1.50;;;16.10;99.90;;;;;;4972875;28;20023;-53
2022/06/29 07:01:36;;;;;;;5.97;2.00;;;16.00;99.90;;;;;;4974032;28;20035;-52
2022/06/29 07:04:01;;;;;;;4.88;1.90;;;15.90;99.90;;;;;;4974219;28;20445;-54
2022/06/29 07:06:27;;;;;;;3.53;1.52;;;15.80;99.90;;;;;;4974279;28;20073;-44
2022/06/29 07:08:54;;;;;;;5.32;1.80;;;15.70;99.90;;;;;;4974009;28;20077;-52
2022/06/29 07:11:20;;;;;;;4.30;1.65;;;15.60;99.90;;;;;;4956476;28;20443;-56
2022/06/29 07:13:46;;;;;;;5.20;1.80;;;15.60;99.90;;;;;;4973883;28;20061;-46
2022/06/29 07:16:11;;;;;;;5.68;1.60;;;15.60;99.90;;;;;;4973810;28;20115;-50
2022/06/29 07:18:37;;;;;;;5.10;2.03;;;15.70;99.90;;;;;;4973891;28;20098;-53
2022/06/29 07:21:03;;;;;;;4.05;1.52;;;15.70;99.90;;;;;;4973273;28;20035;-53
2022/06/29 07:23:29;;;;;;;4.28;2.10;;;15.80;99.90;;;;;;4973637;28;20031;-51
2022/06/29 07:25:55;;;;;;;4.78;1.58;;;15.90;99.90;;;;;;4973015;28;20030;-48
2022/06/29 07:28:21;;;;;;;5.57;1.98;;;16.00;99.90;;;;;;4970795;28;20070;-55
2022/06/29 07:30:47;;;;;;;4.22;1.85;;;16.00;99.90;;;;;;4972372;28;20113;-50
2022/06/29 07:33:13;;;;;;;2.95;1.50;;;16.10;99.90;;;;;;4955850;28;20101;-42
2022/06/29 07:35:39;;;;;;;3.20;1.50;;;16.10;99.90;;;;;;4973165;28;20015;-50
2022/06/29 07:38:05;;;;;;;2.13;1.40;;;16.00;99.90;;;;;;4972973;28;20027;-53
2022/06/29 07:40:31;;;;;;;2.47;1.35;;;16.00;99.90;;;;;;4973203;28;20074;-47
2022/06/29 07:42:57;;;;;;;2.83;1.48;;;16.00;99.90;;;;;;4972680;28;20073;-44
2022/06/29 07:45:23;;;;;;;3.83;1.45;;;16.00;99.90;;;;;;4972598;28;20417;-46
2022/06/29 07:47:50;;;;;;;2.75;1.30;;;16.00;99.90;;;;;;4973338;28;20478;-41
2022/06/29 07:50:15;;;;;;;4.05;1.65;;;16.10;99.90;;;;;;4973366;28;20050;-52
2022/06/29 07:52:42;;;;;;;3.85;1.60;;;16.20;99.90;;;;;;4972738;28;20019;-47
2022/06/29 07:55:09;;;;;;;3.03;1.35;;;16.20;99.90;;;;;;4960866;28;20096;-47
2022/06/29 07:57:35;;;;;;;5.15;1.58;;;16.10;99.90;;;;;;4973167;28;20030;-48
2022/06/29 08:00:01;;;;;;;3.85;1.70;;;16.00;99.90;;;;;;4970867;28;20027;-49
2022/06/29 08:02:27;;;;;;;2.88;1.60;;;15.90;99.90;;;;;;4972682;28;20082;-43
2022/06/29 08:04:53;;;;;;;4.40;1.60;;;15.90;99.90;;;;;;4972911;28;20042;-46
2022/06/29 08:07:18;;;;;;;3.15;1.60;;;15.80;99.90;;;;;;4972728;28;20106;-46
2022/06/29 08:09:44;;;;;;;3.80;1.80;;;15.70;99.90;;;;;;4972267;28;20023;-51
2022/06/29 08:12:10;;;;;;;4.25;2.10;;;15.60;99.90;;;;;;4972826;28;20054;-50
2022/06/29 08:14:35;;;;;;;3.05;1.63;;;15.50;99.90;;;;;;4972868;28;20055;-46
2022/06/29 08:17:01;;;;;;;4.85;1.75;;;15.50;99.90;;;;;;4972797;28;20018;-57
2022/06/29 08:19:27;;;;;;;5.28;2.05;;;15.60;99.90;;;;;;4972779;28;20019;-55
2022/06/29 08:21:52;;;;;;;4.60;2.05;;;15.60;99.90;;;;;;4972929;28;20038;-53
2022/06/29 08:24:18;;;;;;;5.32;2.00;;;15.60;99.90;;;;;;4972162;28;20065;-55
2022/06/29 08:26:44;;;;;;;3.55;1.95;;;15.60;99.90;;;;;;4972568;28;20026;-58
2022/06/29 08:29:10;;;;;;;3.80;2.05;;;15.60;99.90;;;;;;4971153;28;20387;-47
2022/06/29 08:31:37;;;;;;;3.92;1.80;;;15.70;99.90;;;;;;4972748;28;20106;-50
2022/06/29 08:34:06;;;;;;;5.60;2.10;;;15.70;99.90;;;;;;4971877;28;20454;-53
2022/06/29 08:36:31;;;;;;;3.83;2.10;;;15.50;99.90;;;;;;4972486;28;20038;-55
2022/06/29 08:38:57;;;;;;;3.95;1.77;;;15.60;99.90;;;;;;4972354;28;20031;-52
2022/06/29 08:41:25;;;;;;;4.97;1.90;;;15.50;99.90;;;;;;4972154;28;20409;-37
2022/06/29 08:43:51;;;;;;;3.35;1.90;;;15.50;99.90;;;;;;4972785;28;20031;-40
2022/06/29 08:46:17;;;;;;;4.88;2.65;;;15.60;99.90;;;;;;4972500;28;20030;-49
2022/06/29 08:48:43;;;;;;;5.22;3.95;;;15.50;99.90;;;;;;4971903;28;20506;-41
2022/06/29 08:51:11;;;;;;;6.05;4.22;;;15.50;99.90;;;;;;4971906;28;20050;-56
2022/06/29 08:53:40;;;;;;;6.87;4.17;;;15.60;99.90;;;;;;4971734;28;20040;-53
2022/06/29 08:56:07;;;;;;;5.65;2.63;;;15.60;99.90;;;;;;4971814;28;20494;-44
2022/06/29 08:58:35;;;;;;;3.97;2.08;;;15.70;99.90;;;;;;4970341;28;20386;-46
2022/06/29 09:01:00;;;;;;;4.38;2.20;;;15.60;99.90;;;;;;4971795;28;20038;-44
2022/06/29 09:03:26;;;;;;;3.63;2.30;;;15.60;99.90;;;;;;4971673;28;20407;-50
2022/06/29 09:05:54;;;;;;;3.85;2.33;;;15.60;99.90;;;;;;4971604;28;20379;-58
2022/06/29 09:08:21;;;;;;;3.45;2.22;;;15.60;99.90;;;;;;4971781;28;20031;-53
2022/06/29 09:10:47;;;;;;;4.20;1.70;;;15.70;99.90;;;;;;4971998;28;20035;-51
2022/06/29 09:13:21;;;;;;;2.47;1.63;;;15.80;99.90;;;;;;4972048;28;20498;-56
2022/06/29 09:15:55;;;;;;;3.25;1.50;;;16.10;99.90;;;;;;4971874;28;20106;-58
2022/06/29 09:18:31;;;;;;;4.05;1.55;;;16.20;99.90;;;;;;4953435;28;20023;-58
2022/06/29 09:21:02;;;;;;;2.97;1.60;;;16.30;99.90;;;;;;4972306;28;20035;-55
2022/06/29 09:23:29;;;;;;;3.00;1.70;;;16.30;99.90;;;;;;4982901;28;20022;-50
2022/06/29 09:25:55;;;;;;;2.40;1.38;;;16.30;99.90;;;;;;4995726;28;20096;-58
2022/06/29 09:28:26;;;;;;;3.97;1.70;;;16.20;99.90;;;;;;4994346;28;20089;-53
2022/06/29 09:30:54;;;;;;;2.95;1.50;;;16.10;99.90;;;;;;4978531;28;20374;-53
2022/06/29 09:33:28;;;;;;;2.42;1.33;;;16.00;99.90;;;;;;4995242;28;20014;-54
2022/06/29 09:36:16;;;;;;;2.30;1.40;;;15.90;99.90;;;;;;4995322;28;20031;-44
2022/06/29 09:38:42;;;;;;;1.95;1.50;;;15.90;99.90;;;;;;4995125;28;20022;-48
2022/06/29 09:41:13;;;;;;;2.50;1.50;;;16.00;99.90;;;;;;4995320;28;20038;-56
2022/06/29 09:43:46;;;;;;;2.78;1.20;;;16.10;99.90;;;;;;4992929;28;20039;-47
2022/06/29 09:46:14;;;;;;;2.08;1.27;;;16.20;99.90;;;;;;4977861;28;20027;-53
2022/06/29 09:48:41;;;;;;;3.25;1.48;;;16.30;99.90;;;;;;4975261;28;20014;-47
2022/06/29 09:53:55;;;;;;;2.88;1.27;;;16.70;99.90;;;;;;4980755;28;20042;-62
2022/06/29 09:56:22;;;;;;;3.85;1.83;;;16.80;99.90;;;;;;4977177;28;20054;-50
2022/06/29 09:58:49;;;;;;;4.15;1.60;;;16.70;99.90;;;;;;4974845;28;20101;-52
2022/06/29 10:04:01;;;;;;;3.25;1.33;;;16.60;99.90;;;;;;4975653;28;20025;-54
2022/06/29 10:06:27;;;;;;;2.97;1.20;;;16.50;99.90;;;;;;4975291;28;20058;-46
2022/06/29 10:08:53;;;;;;;2.17;1.35;;;16.70;99.90;;;;;;4985520;28;20113;-42
2022/06/29 10:14:54;;;;;;;4.18;1.50;;;16.90;99.90;;;;;;4994560;28;20118;-42
2022/06/29 10:17:35;;;;;;;3.65;1.60;;;17.10;99.90;;;;;;4958269;28;20034;-56
2022/06/29 10:20:06;;;;;;;3.20;1.45;;;17.00;99.90;;;;;;4994457;28;20030;-55
2022/06/29 10:22:32;;;;;;;3.13;1.65;;;16.70;99.90;;;;;;4993461;28;20027;-53
2022/06/29 10:25:10;;;;;;;2.60;1.40;;;16.50;99.90;;;;;;4991994;28;20081;-49
2022/06/29 10:27:36;;;;;;;3.20;1.50;;;16.50;99.90;;;;;;4992759;28;20034;-50
2022/06/29 10:30:22;;;;;;;3.17;1.10;;;16.40;99.90;;;;;;4992577;28;20066;-56
2022/06/29 10:32:48;;;;;;;4.70;1.30;;;16.50;99.90;;;;;;4973026;28;20042;-47
2022/06/29 10:35:14;;;;;;;3.28;1.52;;;16.70;99.90;;;;;;4973522;28;20019;-41
2022/06/29 10:37:54;;;;;;;2.50;1.17;;;16.90;99.90;;;;;;4974547;28;20034;-42
2022/06/29 10:40:25;;;;;;;2.10;1.15;;;17.20;99.90;;;;;;4974062;28;20363;-40
2022/06/29 10:43:10;;;;;;;2.72;1.23;;;17.30;99.90;;;;;;4974223;28;20089;-41
2022/06/29 10:45:40;;;;;;;3.60;1.13;;;17.50;99.90;;;;;;4974625;28;20026;-39
2022/06/29 10:48:07;;;;;;;6.32;1.42;;;17.40;99.90;;;;;;4974470;28;20118;-42
2022/06/29 10:50:40;;;;;;;5.68;1.60;;;17.20;99.50;;;;;;4973052;28;20078;-40
2022/06/29 10:53:08;;;;;;;6.28;1.90;;;17.20;99.90;;;;;;4974652;28;20030;-40
2022/06/29 10:55:35;;;;;;;6.15;1.75;;;17.00;99.90;;;;;;4973988;28;20026;-39
2022/06/29 10:58:02;;;;;;;10.30;2.55;;;17.00;99.90;;;;;;4973129;28;20027;-42
2022/06/29 11:00:31;;;;;;;7.70;2.05;;;17.00;99.90;;;;;;4973322;28;20035;-49
2022/06/29 11:02:57;;;;;;;6.70;2.22;;;17.20;99.90;;;;;;4974303;28;20117;-55
2022/06/29 11:05:24;;;;;;;5.53;1.92;;;17.20;99.90;;;;;;4974159;28;20080;-49
2022/06/29 11:13:30;;;;;;;5.07;1.73;;;18.10;99.90;;;;;;4973897;28;20118;-50
2022/06/29 11:15:58;;;;;;;4.82;1.48;;;19.00;99.90;;;;;;4973398;28;20046;-49
2022/06/29 11:18:32;;;;;;;4.20;1.20;;;19.10;97.50;;;;;;4973702;28;20034;-56
2022/06/29 11:21:02;;;;;;;2.78;1.25;;;18.70;99.20;;;;;;4973023;28;20038;-53
2022/06/29 11:23:30;;;;;;;3.65;1.10;;;19.00;99.90;;;;;;4973330;28;20287;-42
2022/06/29 11:25:56;;;;;;;4.90;1.02;;;19.40;97.20;;;;;;4973808;28;20529;-50
2022/06/29 11:28:25;;;;;;;5.55;1.30;;;19.60;97.80;;;;;;4973716;28;20485;-43
2022/06/29 11:31:10;;;;;;;2.60;1.08;;;20.40;99.00;;;;;;4973708;28;20038;-46
2022/06/29 11:33:39;;;;;;;3.38;0.80;;;20.90;95.30;;;;;;4973518;28;20510;-43
2022/06/29 11:36:09;;;;;;;;;;;21.20;94.30;;;;;;4973381;28;20027;-40
2022/06/29 11:38:39;;;;;;;;;;;21.70;96.80;;;;;;4956670;28;19917;-40
2022/06/29 11:41:18;;;;;;;3.35;1.30;;;22.00;93.80;;;;;;4973051;28;20008;-42
2022/06/29 11:43:45;;;;;;;4.88;1.35;;;21.90;91.40;;;;;;4973318;28;20081;-48
2022/06/29 11:46:21;;;;;;;4.40;1.17;;;21.60;91.90;;;;;;4973328;28;20103;-54
2022/06/29 11:51:36;;;;;;;3.22;1.20;;;21.80;92.40;;;;;;4973507;28;20033;-42
2022/06/29 11:54:08;;;;;;;4.22;1.02;;;21.50;94.50;;;;;;4973408;28;20031;-41
2022/06/29 11:56:34;;;;;;;4.82;1.50;;;21.40;92.00;;;;;;4973179;28;20037;-47
2022/06/29 11:59:04;;;;;;;7.68;1.35;;;21.00;93.70;;;;;;4973019;28;20027;-54
2022/06/29 12:01:29;;;;;;;4.60;1.10;;;20.90;93.00;;;;;;4972804;28;20117;-42
2022/06/29 12:04:00;;;;;;;4.15;1.23;;;21.10;92.10;;;;;;4973211;28;20109;-50
2022/06/29 12:06:28;;;;;;;4.40;1.05;;;21.30;91.30;;;;;;4973365;28;20033;-45
2022/06/29 12:08:56;;;;;;;3.85;0.98;;;21.60;91.20;;;;;;4973010;28;20026;-51
2022/06/29 12:11:22;;;;;;;4.32;1.10;;;22.10;91.50;;;;;;4972840;28;20105;-54
2022/06/29 12:13:49;;;;;;;4.32;1.38;;;22.20;89.20;;;;;;4972605;28;20038;-55
2022/06/29 12:16:15;;;;;;;2.42;1.20;;;22.40;86.20;;;;;;4972746;28;20066;-55
2022/06/29 12:18:41;;;;;;;7.15;1.58;;;22.10;87.00;;;;;;4972918;28;20019;-60
2022/06/29 12:21:08;;;;;;;3.90;1.20;;;22.10;87.20;;;;;;4973001;28;20390;-56
2022/06/29 12:23:34;;;;;;;3.80;1.20;;;22.20;89.70;;;;;;4972680;28;20122;-52
2022/06/29 12:26:00;;;;;;;4.65;1.27;;;22.00;82.70;;;;;;4972516;28;20025;-55
2022/06/29 12:28:27;;;;;;;5.53;1.65;;;21.90;85.30;;;;;;4972521;28;20066;-55
2022/06/29 12:30:53;;;;;;;3.92;1.02;;;22.20;91.20;;;;;;4972366;28;20034;-41
2022/06/29 12:33:19;;;;;;;4.40;1.10;;;22.30;83.40;;;;;;4972539;28;20073;-59
2022/06/29 12:35:46;;;;;;;4.07;1.20;;;22.30;81.60;;;;;;4972177;28;20085;-50
2022/06/29 12:38:12;;;;;;;4.45;1.00;;;22.40;90.10;;;;;;4972501;28;20022;-42
2022/06/29 12:40:38;;;;;;;5.00;1.15;;;22.50;84.50;;;;;;4971536;28;20339;-53
2022/06/29 12:43:04;;;;;;;6.38;1.48;;;22.50;81.20;;;;;;4972035;28;20041;-53
2022/06/29 12:45:31;;;;;;;5.90;1.40;;;22.30;80.90;;;;;;4972500;28;20034;-50
2022/06/29 12:47:56;;;;;;;6.32;1.70;;;22.00;82.50;;;;;;4972146;28;20035;-53
2022/06/29 12:50:23;;;;;;;7.88;1.60;;;22.00;82.60;;;;;;4972293;28;20050;-50
2022/06/29 12:52:50;;;;;;;7.72;1.70;;;22.00;81.90;;;;;;4971816;28;20031;-54
2022/06/29 12:55:18;;;;;;;6.10;1.40;;;22.10;80.10;;;;;;4971940;28;20037;-49
2022/06/29 12:57:44;;;;;;;4.32;1.42;;;21.70;79.70;;;;;;4972287;28;20514;-47
2022/06/29 13:00:12;;;;;;;5.32;1.40;;;21.40;81.40;;;;;;4972012;28;20023;-52
2022/06/29 13:02:38;;;;;;;6.40;1.50;;;21.20;79.20;;;;;;4939089;29;20031;-53
2022/06/29 13:05:04;;;;;;;8.10;1.80;;;20.90;84.60;;;;;;4969724;28;20062;-47
2022/06/29 13:07:30;;;;;;;7.22;1.60;;;20.90;89.60;;;;;;4991682;28;20397;-59
2022/06/29 13:09:57;;;;;;;7.97;1.70;;;20.70;84.90;;;;;;4980616;28;20035;-49